createdAt,value
2018-05-18T00:00:24.904Z,74.74
2018-05-18T00:01:24.923Z,74.08
2018-05-18T00:02:24.936Z,73.88
2018-05-18T00:03:25.001Z,74.23
2018-05-18T00:04:24.978Z,75.37
2018-05-18T00:05:24.984Z,75.18
2018-05-18T00:06:25.001Z,75.37
2018-05-18T00:07:25.019Z,75.66
2018-05-18T00:08:25.034Z,74.99
2018-05-18T00:09:25.054Z,74.80
2018-05-18T00:10:25.065Z,75.09
2018-05-18T00:11:25.084Z,75.34
2018-05-18T00:12:25.098Z,76.10
2018-05-18T00:13:25.117Z,75.62
2018-05-18T00:14:25.130Z,77.44
2018-05-18T00:15:25.146Z,76.57
2018-05-18T00:16:25.162Z,75.95
2018-05-18T00:17:25.178Z,76.42
2018-05-18T00:18:25.198Z,76.20
2018-05-18T00:19:25.211Z,76.14
2018-05-18T00:20:25.228Z,75.85
2018-05-18T00:21:25.242Z,75.76
2018-05-18T00:22:25.259Z,75.18
2018-05-18T00:23:25.275Z,75.47
2018-05-18T00:24:25.293Z,74.99
2018-05-18T00:25:25.312Z,75.28
2018-05-18T00:26:25.326Z,75.37
2018-05-18T00:27:25.340Z,76.42
2018-05-18T00:28:25.367Z,76.10
2018-05-18T00:29:25.373Z,76.48
2018-05-18T00:30:25.387Z,76.20
2018-05-18T00:31:25.408Z,76.57
2018-05-18T00:32:25.427Z,76.67
2018-05-18T00:33:25.436Z,76.52
2018-05-18T00:34:25.451Z,75.76
2018-05-18T00:35:25.468Z,75.57
2018-05-18T00:36:25.487Z,76.14
2018-05-18T00:37:25.505Z,76.23
2018-05-18T00:38:25.526Z,75.28
2018-05-18T00:39:25.534Z,74.52
2018-05-18T00:40:25.552Z,74.90
2018-05-18T00:41:25.565Z,75.76
2018-05-18T00:42:25.581Z,75.47
2018-05-18T00:43:25.600Z,76.33
2018-05-18T00:44:25.613Z,76.14
2018-05-18T00:45:25.628Z,76.04
2018-05-18T00:46:25.646Z,74.99
2018-05-18T00:47:25.662Z,75.57
2018-05-18T00:48:25.677Z,75.18
2018-05-18T00:49:25.693Z,75.37
2018-05-18T00:50:25.756Z,75.95
2018-05-18T00:51:25.733Z,75.28
2018-05-18T00:52:25.807Z,76.10
2018-05-18T00:53:25.759Z,76.42
2018-05-18T00:54:25.775Z,75.66
2018-05-18T00:55:25.789Z,76.04
2018-05-18T00:56:25.804Z,75.57
2018-05-18T00:57:25.822Z,75.18
2018-05-18T00:58:25.837Z,76.14
2018-05-18T00:59:25.853Z,76.90
2018-05-18T01:00:25.870Z,76.71
2018-05-18T01:01:25.888Z,75.95
2018-05-18T01:02:25.903Z,75.66
2018-05-18T01:03:25.918Z,76.39
2018-05-18T01:04:26.021Z,76.67
2018-05-18T01:05:25.955Z,77.34
2018-05-18T01:06:25.967Z,78.01
2018-05-18T01:07:25.985Z,77.53
2018-05-18T01:08:25.999Z,77.53
2018-05-18T01:09:26.014Z,78.10
2018-05-18T01:10:26.038Z,78.30
2018-05-18T01:11:26.046Z,78.44
2018-05-18T01:12:26.071Z,78.77
2018-05-18T01:13:26.081Z,78.67
2018-05-18T01:14:26.174Z,77.82
2018-05-18T01:15:26.115Z,77.53
2018-05-18T01:16:26.126Z,77.53
2018-05-18T01:17:26.163Z,77.82
2018-05-18T01:18:26.157Z,77.82
2018-05-18T01:19:26.179Z,77.91
2018-05-18T01:20:26.189Z,77.53
2018-05-18T01:21:26.205Z,76.96
2018-05-18T01:22:26.229Z,75.72
2018-05-18T01:23:26.238Z,75.72
2018-05-18T01:24:26.255Z,75.43
2018-05-18T01:25:26.271Z,75.91
2018-05-18T01:26:26.284Z,76.20
2018-05-18T01:27:26.300Z,76.10
2018-05-18T01:28:26.316Z,75.72
2018-05-18T01:29:26.332Z,75.62
2018-05-18T01:30:26.360Z,76.57
2018-05-18T01:31:26.365Z,76.48
2018-05-18T01:32:26.380Z,76.10
2018-05-18T01:33:26.395Z,76.39
2018-05-18T01:34:26.412Z,75.34
2018-05-18T01:35:26.427Z,75.24
2018-05-18T01:36:26.444Z,75.72
2018-05-18T01:37:26.461Z,76.06
2018-05-18T01:38:26.483Z,76.35
2018-05-18T01:39:26.495Z,77.59
2018-05-18T01:40:26.513Z,77.49
2018-05-18T01:41:26.527Z,77.01
2018-05-18T01:42:26.543Z,76.01
2018-05-18T01:43:26.555Z,76.57
2018-05-18T01:44:26.570Z,76.10
2018-05-18T01:45:26.585Z,76.20
2018-05-18T01:46:26.606Z,76.10
2018-05-18T01:47:26.617Z,76.10
2018-05-18T01:48:26.644Z,76.01
2018-05-18T01:49:26.650Z,76.44
2018-05-18T01:50:26.665Z,76.06
2018-05-18T01:51:26.681Z,76.35
2018-05-18T01:52:26.697Z,76.16
2018-05-18T01:53:26.720Z,76.06
2018-05-18T01:54:26.727Z,76.44
2018-05-18T01:55:26.743Z,77.20
2018-05-18T01:56:26.759Z,77.40
2018-05-18T01:57:26.775Z,76.82
2018-05-18T01:58:26.791Z,77.01
2018-05-18T01:59:26.809Z,76.77
2018-05-18T02:00:26.830Z,77.15
2018-05-18T02:01:26.838Z,76.96
2018-05-18T02:02:26.855Z,76.01
2018-05-18T02:03:26.874Z,76.16
2018-05-18T02:04:26.886Z,76.16
2018-05-18T02:05:26.906Z,77.53
2018-05-18T02:06:26.918Z,76.86
2018-05-18T02:07:26.932Z,76.01
2018-05-18T02:08:26.948Z,76.01
2018-05-18T02:09:26.973Z,76.01
2018-05-18T02:10:26.980Z,75.62
2018-05-18T02:11:27.002Z,76.06
2018-05-18T02:12:27.012Z,76.44
2018-05-18T02:13:27.029Z,76.44
2018-05-18T02:14:27.049Z,76.44
2018-05-18T02:15:27.059Z,77.11
2018-05-18T02:16:27.073Z,77.69
2018-05-18T02:17:27.095Z,77.30
2018-05-18T02:18:27.106Z,77.20
2018-05-18T02:19:27.126Z,78.16
2018-05-18T02:20:27.454Z,77.30
2018-05-18T02:21:27.156Z,76.86
2018-05-18T02:22:27.167Z,77.62
2018-05-18T02:23:27.185Z,76.48
2018-05-18T02:24:27.205Z,76.10
2018-05-18T02:25:27.221Z,75.72
2018-05-18T02:26:27.236Z,75.72
2018-05-18T02:27:27.248Z,75.62
2018-05-18T02:28:27.267Z,76.10
2018-05-18T02:29:27.294Z,76.20
2018-05-18T02:30:27.294Z,75.91
2018-05-18T02:31:27.311Z,76.48
2018-05-18T02:32:27.327Z,76.10
2018-05-18T02:33:27.348Z,75.62
2018-05-18T02:34:27.367Z,77.44
2018-05-18T02:35:27.377Z,77.62
2018-05-18T02:36:27.394Z,77.15
2018-05-18T02:37:27.405Z,76.86
2018-05-18T02:38:27.422Z,76.48
2018-05-18T02:39:27.537Z,76.39
2018-05-18T02:40:27.498Z,76.29
2018-05-18T02:41:27.470Z,76.01
2018-05-18T02:42:27.484Z,75.81
2018-05-18T02:43:27.501Z,75.15
2018-05-18T02:44:27.521Z,76.10
2018-05-18T02:45:27.532Z,76.10
2018-05-18T02:46:27.547Z,76.77
2018-05-18T02:47:27.563Z,75.91
2018-05-18T02:48:27.579Z,75.91
2018-05-18T02:49:27.595Z,76.10
2018-05-18T02:50:27.614Z,75.81
2018-05-18T02:51:27.659Z,75.91
2018-05-18T02:52:27.725Z,75.72
2018-05-18T02:53:27.660Z,75.81
2018-05-18T02:54:27.676Z,76.01
2018-05-18T02:55:27.695Z,75.72
2018-05-18T02:56:27.709Z,75.62
2018-05-18T02:57:27.721Z,76.29
2018-05-18T02:58:27.737Z,76.20
2018-05-18T02:59:27.754Z,76.48
2018-05-18T03:00:27.872Z,75.62
2018-05-18T03:01:27.784Z,75.24
2018-05-18T03:02:27.802Z,75.34
2018-05-18T03:03:27.817Z,75.87
2018-05-18T03:04:27.835Z,76.35
2018-05-18T03:05:27.849Z,77.01
2018-05-18T03:06:27.871Z,76.86
2018-05-18T03:07:27.879Z,75.91
2018-05-18T03:08:27.895Z,75.34
2018-05-18T03:09:27.910Z,74.96
2018-05-18T03:10:27.925Z,74.57
2018-05-18T03:11:27.941Z,74.73
2018-05-18T03:12:27.959Z,74.82
2018-05-18T03:13:27.972Z,73.58
2018-05-18T03:14:27.989Z,73.68
2018-05-18T03:15:28.017Z,73.58
2018-05-18T03:16:28.023Z,73.77
2018-05-18T03:17:28.037Z,74.35
2018-05-18T03:18:28.052Z,74.88
2018-05-18T03:19:28.068Z,75.16
2018-05-18T03:20:28.088Z,75.07
2018-05-18T03:21:28.104Z,75.84
2018-05-18T03:22:28.120Z,76.03
2018-05-18T03:23:28.132Z,76.50
2018-05-18T03:24:28.146Z,75.20
2018-05-18T03:25:28.231Z,75.07
2018-05-18T03:26:28.177Z,75.93
2018-05-18T03:27:28.203Z,75.16
2018-05-18T03:28:28.217Z,75.20
2018-05-18T03:29:28.223Z,75.59
2018-05-18T03:30:28.242Z,75.40
2018-05-18T03:31:28.258Z,74.88
2018-05-18T03:32:28.282Z,75.07
2018-05-18T03:33:28.291Z,75.36
2018-05-18T03:34:28.307Z,75.07
2018-05-18T03:35:28.322Z,74.98
2018-05-18T03:36:28.340Z,75.45
2018-05-18T03:37:28.348Z,75.07
2018-05-18T03:38:28.363Z,74.92
2018-05-18T03:39:28.381Z,74.54
2018-05-18T03:40:28.395Z,74.44
2018-05-18T03:41:28.415Z,73.83
2018-05-18T03:42:28.426Z,74.50
2018-05-18T03:43:28.443Z,74.88
2018-05-18T03:44:28.459Z,74.44
2018-05-18T03:45:28.475Z,73.45
2018-05-18T03:46:28.487Z,73.45
2018-05-18T03:47:28.711Z,74.40
2018-05-18T03:48:28.518Z,75.07
2018-05-18T03:49:28.532Z,75.55
2018-05-18T03:50:28.581Z,75.64
2018-05-18T03:51:28.569Z,74.82
2018-05-18T03:52:28.580Z,75.59
2018-05-18T03:53:28.596Z,74.44
2018-05-18T03:54:28.611Z,72.82
2018-05-18T03:55:28.629Z,73.30
2018-05-18T03:56:28.655Z,73.77
2018-05-18T03:57:28.759Z,73.49
2018-05-18T03:58:28.688Z,73.87
2018-05-18T03:59:28.691Z,73.58
2018-05-18T04:00:28.706Z,73.39
2018-05-18T04:01:28.815Z,72.82
2018-05-18T04:02:28.742Z,73.30
2018-05-18T04:03:28.752Z,73.49
2018-05-18T04:04:28.768Z,73.49
2018-05-18T04:05:28.780Z,73.77
2018-05-18T04:06:28.797Z,73.87
2018-05-18T04:07:28.819Z,74.25
2018-05-18T04:08:28.830Z,74.25
2018-05-18T04:09:28.844Z,73.30
2018-05-18T04:10:28.862Z,73.87
2018-05-18T04:11:28.876Z,74.54
2018-05-18T04:12:28.893Z,74.63
2018-05-18T04:13:28.910Z,74.44
2018-05-18T04:14:29.051Z,74.92
2018-05-18T04:15:28.939Z,74.63
2018-05-18T04:16:28.959Z,74.35
2018-05-18T04:17:28.970Z,73.49
2018-05-18T04:18:28.988Z,74.54
2018-05-18T04:19:29.002Z,73.77
2018-05-18T04:20:29.028Z,73.01
2018-05-18T04:21:29.032Z,72.25
2018-05-18T04:22:29.046Z,72.92
2018-05-18T04:23:29.061Z,73.24
2018-05-18T04:24:29.080Z,72.63
2018-05-18T04:25:29.094Z,72.82
2018-05-18T04:26:29.109Z,72.82
2018-05-18T04:27:29.254Z,72.92
2018-05-18T04:28:29.177Z,73.87
2018-05-18T04:29:29.166Z,73.39
2018-05-18T04:30:29.184Z,72.82
2018-05-18T04:31:29.190Z,72.82
2018-05-18T04:32:29.203Z,72.44
2018-05-18T04:33:29.216Z,72.72
2018-05-18T04:34:29.235Z,72.82
2018-05-18T04:35:29.252Z,72.53
2018-05-18T04:36:29.266Z,72.72
2018-05-18T04:37:29.280Z,73.39
2018-05-18T04:38:29.296Z,73.30
2018-05-18T04:39:29.312Z,73.11
2018-05-18T04:40:29.331Z,73.01
2018-05-18T04:41:29.345Z,73.39
2018-05-18T04:42:29.359Z,73.39
2018-05-18T04:43:29.377Z,72.82
2018-05-18T04:44:29.390Z,72.44
2018-05-18T04:45:29.406Z,73.11
2018-05-18T04:46:29.428Z,73.11
2018-05-18T04:47:29.442Z,73.30
2018-05-18T04:48:29.455Z,72.63
2018-05-18T04:49:29.470Z,73.11
2018-05-18T04:50:29.484Z,72.72
2018-05-18T04:51:29.500Z,72.34
2018-05-18T04:52:29.516Z,72.82
2018-05-18T04:53:29.533Z,72.76
2018-05-18T04:54:29.552Z,71.72
2018-05-18T04:55:29.563Z,70.25
2018-05-18T04:56:29.578Z,70.25
2018-05-18T04:57:29.597Z,70.92
2018-05-18T04:58:29.611Z,71.01
2018-05-18T04:59:29.627Z,72.44
2018-05-18T05:00:29.645Z,71.77
2018-05-18T05:01:29.689Z,71.11
2018-05-18T05:02:29.671Z,71.01
2018-05-18T05:03:29.688Z,70.63
2018-05-18T05:04:29.732Z,72.16
2018-05-18T05:05:31.199Z,71.39
2018-05-18T05:06:32.181Z,71.30
2018-05-18T05:07:32.439Z,71.17
2018-05-18T05:08:29.776Z,71.64
2018-05-18T05:09:29.785Z,71.36
2018-05-18T05:10:29.808Z,70.97
2018-05-18T05:11:29.857Z,71.11
2018-05-18T05:12:29.925Z,71.64
2018-05-18T05:13:30.173Z,71.48
2018-05-18T05:14:29.927Z,72.16
2018-05-18T05:15:30.180Z,72.34
2018-05-18T05:16:29.892Z,70.72
2018-05-18T05:17:29.910Z,70.47
2018-05-18T05:18:29.924Z,70.00
2018-05-18T05:19:29.938Z,69.90
2018-05-18T05:20:29.958Z,70.00
2018-05-18T05:21:29.978Z,69.01
2018-05-18T05:22:29.984Z,68.44
2018-05-18T05:23:30.001Z,68.82
2018-05-18T05:24:30.026Z,69.20
2018-05-18T05:25:30.036Z,69.58
2018-05-18T05:26:30.046Z,69.96
2018-05-18T05:27:30.064Z,71.01
2018-05-18T05:28:30.077Z,69.96
2018-05-18T05:29:30.100Z,69.68
2018-05-18T05:30:30.132Z,68.95
2018-05-18T05:31:30.128Z,69.23
2018-05-18T05:32:30.142Z,68.95
2018-05-18T05:33:30.160Z,69.14
2018-05-18T05:34:30.187Z,69.33
2018-05-18T05:35:30.241Z,68.47
2018-05-18T05:36:30.205Z,68.15
2018-05-18T05:37:30.219Z,68.72
2018-05-18T05:38:30.246Z,70.44
2018-05-18T05:39:30.251Z,69.68
2018-05-18T05:40:30.269Z,70.06
2018-05-18T05:41:30.287Z,69.87
2018-05-18T05:42:30.303Z,69.68
2018-05-18T05:43:30.317Z,69.10
2018-05-18T05:44:30.330Z,69.71
2018-05-18T05:45:30.675Z,69.90
2018-05-18T05:46:30.361Z,68.47
2018-05-18T05:47:30.381Z,67.80
2018-05-18T05:48:30.393Z,68.09
2018-05-18T05:49:30.407Z,68.38
2018-05-18T05:50:30.425Z,69.23
2018-05-18T05:51:30.496Z,68.57
2018-05-18T05:52:30.510Z,69.04
2018-05-18T05:53:30.499Z,69.52
2018-05-18T05:54:30.488Z,68.95
2018-05-18T05:55:30.512Z,69.04
2018-05-18T05:56:30.523Z,68.47
2018-05-18T05:57:30.543Z,68.47
2018-05-18T05:58:30.635Z,68.18
2018-05-18T05:59:30.569Z,69.52
2018-05-18T06:00:30.590Z,69.04
2018-05-18T06:01:30.600Z,68.38
2018-05-18T06:02:30.618Z,67.80
2018-05-18T06:03:30.633Z,67.77
2018-05-18T06:04:30.644Z,68.53
2018-05-18T06:05:30.661Z,68.24
2018-05-18T06:06:30.680Z,68.91
2018-05-18T06:07:30.694Z,68.53
2018-05-18T06:08:30.710Z,68.63
2018-05-18T06:09:30.726Z,69.48
2018-05-18T06:10:30.740Z,70.25
2018-05-18T06:11:30.760Z,70.47
2018-05-18T06:12:30.784Z,69.33
2018-05-18T06:13:30.788Z,69.43
2018-05-18T06:14:30.845Z,70.28
2018-05-18T06:15:30.839Z,70.19
2018-05-18T06:16:30.836Z,69.90
2018-05-18T06:17:30.851Z,68.76
2018-05-18T06:18:30.881Z,68.57
2018-05-18T06:19:31.180Z,68.60
2018-05-18T06:20:30.946Z,67.65
2018-05-18T06:21:30.913Z,67.52
2018-05-18T06:22:30.931Z,67.61
2018-05-18T06:23:30.964Z,66.85
2018-05-18T06:24:31.107Z,67.42
2018-05-18T06:25:30.979Z,68.18
2018-05-18T06:26:31.015Z,67.99
2018-05-18T06:27:31.039Z,67.52
2018-05-18T06:28:31.028Z,68.70
2018-05-18T06:29:31.175Z,66.88
2018-05-18T06:30:31.074Z,66.41
2018-05-18T06:31:31.072Z,66.60
2018-05-18T06:32:31.289Z,65.99
2018-05-18T06:33:31.568Z,66.56
2018-05-18T06:34:31.333Z,67.52
2018-05-18T06:35:31.749Z,66.56
2018-05-18T06:36:31.159Z,66.28
2018-05-18T06:37:31.187Z,67.52
2018-05-18T06:38:31.210Z,67.52
2018-05-18T06:39:31.205Z,68.28
2018-05-18T06:40:31.212Z,69.90
2018-05-18T06:41:31.232Z,67.80
2018-05-18T06:42:31.254Z,67.33
2018-05-18T06:43:31.263Z,68.47
2018-05-18T06:44:31.276Z,68.28
2018-05-18T06:45:31.309Z,67.71
2018-05-18T06:46:31.312Z,67.33
2018-05-18T06:47:31.322Z,67.61
2018-05-18T06:48:31.346Z,66.94
2018-05-18T06:49:31.402Z,67.74
2018-05-18T06:50:31.378Z,66.41
2018-05-18T06:51:31.394Z,66.28
2018-05-18T06:52:31.500Z,66.38
2018-05-18T06:53:32.521Z,67.17
2018-05-18T06:54:31.435Z,66.88
2018-05-18T06:55:31.466Z,66.41
2018-05-18T06:56:31.473Z,65.07
2018-05-18T06:57:31.504Z,65.26
2018-05-18T06:58:31.502Z,65.70
2018-05-18T06:59:31.538Z,66.66
2018-05-18T07:00:31.540Z,67.90
2018-05-18T07:01:31.546Z,67.80
2018-05-18T07:02:31.565Z,69.04
2018-05-18T07:03:31.598Z,68.28
2018-05-18T07:04:31.594Z,67.71
2018-05-18T07:05:31.622Z,67.61
2018-05-18T07:06:31.626Z,66.85
2018-05-18T07:07:32.391Z,66.98
2018-05-18T07:08:31.660Z,67.33
2018-05-18T07:09:31.745Z,67.33
2018-05-18T07:10:31.726Z,67.52
2018-05-18T07:11:31.721Z,67.14
2018-05-18T07:12:31.723Z,67.90
2018-05-18T07:14:32.169Z,67.04
2018-05-18T07:15:31.784Z,67.90
2018-05-18T07:16:31.828Z,66.75
2018-05-18T07:17:32.430Z,66.78
2018-05-18T07:18:31.886Z,66.12
2018-05-18T07:19:32.089Z,66.69
2018-05-18T07:20:31.854Z,65.93
2018-05-18T07:22:31.884Z,66.22
2018-05-18T07:23:31.905Z,65.26
2018-05-18T07:24:31.927Z,65.48
2018-05-18T07:25:31.932Z,65.30
2018-05-18T07:26:31.951Z,65.10
2018-05-18T07:27:31.968Z,64.15
2018-05-18T07:28:31.984Z,65.30
2018-05-18T07:30:32.032Z,64.05
2018-05-18T07:31:32.028Z,63.96
2018-05-18T07:32:32.044Z,64.15
2018-05-18T07:33:32.065Z,65.48
2018-05-18T07:34:32.082Z,64.34
2018-05-18T07:35:32.098Z,64.15
2018-05-18T07:36:32.111Z,65.10
2018-05-18T07:37:32.135Z,65.10
2018-05-18T07:38:32.145Z,65.30
2018-05-18T07:39:32.159Z,66.35
2018-05-18T07:40:32.177Z,64.81
2018-05-18T07:41:32.251Z,64.72
2018-05-18T07:42:32.209Z,65.30
2018-05-18T07:43:32.267Z,65.10
2018-05-18T07:44:32.243Z,65.01
2018-05-18T07:45:32.259Z,64.37
2018-05-18T07:46:32.275Z,63.89
2018-05-18T07:47:32.295Z,64.15
2018-05-18T07:48:32.313Z,63.67
2018-05-18T07:49:32.323Z,64.43
2018-05-18T07:50:32.337Z,67.87
2018-05-18T07:51:32.370Z,67.11
2018-05-18T07:52:32.371Z,64.18
2018-05-18T07:53:32.456Z,64.09
2018-05-18T07:54:32.405Z,63.03
2018-05-18T07:55:32.427Z,63.70
2018-05-18T07:56:32.441Z,63.89
2018-05-18T07:57:32.460Z,63.80
2018-05-18T07:58:32.471Z,63.80
2018-05-18T07:59:32.560Z,63.03
2018-05-18T08:00:32.504Z,62.81
2018-05-18T08:01:32.541Z,62.43
2018-05-18T08:02:32.536Z,62.71
2018-05-18T08:03:32.558Z,63.29
2018-05-18T08:04:32.571Z,63.20
2018-05-18T08:05:32.587Z,63.10
2018-05-18T08:06:32.609Z,63.64
2018-05-18T08:07:32.622Z,64.59
2018-05-18T08:08:32.637Z,64.91
2018-05-18T08:09:32.652Z,65.39
2018-05-18T08:10:32.673Z,64.34
2018-05-18T08:11:32.688Z,63.39
2018-05-18T08:12:32.701Z,64.34
2018-05-18T08:13:32.719Z,65.10
2018-05-18T08:14:32.733Z,64.34
2018-05-18T08:15:32.749Z,64.05
2018-05-18T08:16:33.079Z,63.67
2018-05-18T08:17:32.847Z,63.10
2018-05-18T08:18:32.821Z,63.20
2018-05-18T08:19:32.830Z,63.03
2018-05-18T08:20:32.854Z,62.37
2018-05-18T08:21:32.854Z,63.89
2018-05-18T08:22:32.943Z,64.12
2018-05-18T08:23:32.923Z,62.30
2018-05-18T08:24:32.905Z,61.92
2018-05-18T08:25:32.920Z,63.51
2018-05-18T08:26:32.933Z,62.46
2018-05-18T08:27:32.963Z,62.55
2018-05-18T08:28:32.963Z,62.75
2018-05-18T08:29:32.981Z,61.41
2018-05-18T08:30:32.998Z,61.69
2018-05-18T08:31:33.018Z,61.95
2018-05-18T08:32:33.034Z,62.43
2018-05-18T08:33:33.044Z,63.67
2018-05-18T08:34:33.072Z,63.67
2018-05-18T08:35:33.083Z,63.67
2018-05-18T08:36:33.099Z,63.96
2018-05-18T08:37:33.115Z,64.34
2018-05-18T08:38:33.215Z,64.34
2018-05-18T08:39:33.148Z,63.03
2018-05-18T08:40:33.292Z,62.65
2018-05-18T08:41:33.208Z,63.60
2018-05-18T08:42:33.252Z,62.87
2018-05-18T08:43:33.207Z,61.32
2018-05-18T08:44:33.604Z,61.51
2018-05-18T08:45:33.464Z,62.11
2018-05-18T08:46:33.590Z,62.49
2018-05-18T08:47:33.274Z,62.68
2018-05-18T08:48:33.289Z,61.82
2018-05-18T08:49:33.304Z,60.46
2018-05-18T08:50:33.324Z,60.93
2018-05-18T08:51:33.346Z,61.89
2018-05-18T08:52:33.381Z,61.86
2018-05-18T08:53:33.377Z,62.43
2018-05-18T08:54:33.412Z,63.42
2018-05-18T08:55:33.406Z,62.84
2018-05-18T08:56:33.422Z,63.13
2018-05-18T08:57:33.438Z,63.32
2018-05-18T08:58:33.471Z,62.55
2018-05-18T08:59:33.479Z,62.18
2018-05-18T09:00:33.541Z,64.40
2018-05-18T09:01:34.749Z,64.40
2018-05-18T09:02:34.669Z,62.49
2018-05-18T09:03:33.541Z,62.68
2018-05-18T09:04:33.555Z,61.92
2018-05-18T09:05:33.671Z,61.06
2018-05-18T09:06:33.592Z,60.93
2018-05-18T09:07:33.607Z,61.41
2018-05-18T09:08:33.630Z,61.79
2018-05-18T09:09:33.634Z,61.60
2018-05-18T09:10:33.652Z,62.46
2018-05-18T09:11:33.687Z,62.37
2018-05-18T09:12:33.702Z,62.65
2018-05-18T09:13:33.701Z,62.65
2018-05-18T09:14:33.719Z,61.44
2018-05-18T09:15:33.733Z,61.63
2018-05-18T09:16:33.751Z,61.25
2018-05-18T09:17:33.768Z,60.20
2018-05-18T09:18:33.786Z,61.16
2018-05-18T09:19:33.803Z,61.76
2018-05-18T09:20:33.816Z,60.99
2018-05-18T09:21:33.835Z,60.33
2018-05-18T09:22:33.848Z,58.83
2018-05-18T09:23:33.869Z,58.25
2018-05-18T09:24:33.883Z,57.58
2018-05-18T09:25:34.019Z,57.87
2018-05-18T09:26:34.115Z,57.84
2018-05-18T09:27:33.952Z,58.03
2018-05-18T09:28:33.950Z,59.37
2018-05-18T09:29:33.965Z,59.56
2018-05-18T09:30:33.999Z,59.97
2018-05-18T09:31:34.000Z,58.92
2018-05-18T09:32:34.016Z,58.25
2018-05-18T09:33:34.047Z,59.40
2018-05-18T09:34:34.049Z,59.84
2018-05-18T09:35:34.066Z,60.42
2018-05-18T09:36:34.085Z,59.94
2018-05-18T09:37:34.119Z,59.66
2018-05-18T09:38:34.121Z,60.16
2018-05-18T09:39:34.138Z,59.30
2018-05-18T09:40:34.236Z,60.45
2018-05-18T09:41:34.173Z,58.54
2018-05-18T09:42:34.181Z,58.22
2018-05-18T09:43:34.205Z,58.70
2018-05-18T09:44:34.217Z,58.54
2018-05-18T09:45:34.230Z,58.73
2018-05-18T09:46:34.264Z,58.06
2018-05-18T09:47:34.268Z,58.32
2018-05-18T09:48:34.285Z,59.75
2018-05-18T09:49:34.297Z,59.01
2018-05-18T09:50:34.917Z,58.73
2018-05-18T09:51:34.352Z,57.75
2018-05-18T09:52:34.345Z,58.61
2018-05-18T09:53:34.375Z,59.27
2018-05-18T09:54:34.530Z,59.37
2018-05-18T09:55:34.742Z,58.89
2018-05-18T09:56:34.771Z,58.32
2018-05-18T09:57:34.442Z,58.98
2018-05-18T09:58:34.465Z,60.45
2018-05-18T09:59:34.469Z,58.83
2018-05-18T10:00:34.492Z,58.63
2018-05-18T10:01:34.506Z,57.90
2018-05-18T10:02:34.516Z,58.18
2018-05-18T10:03:34.531Z,57.23
2018-05-18T10:04:34.546Z,56.65
2018-05-18T10:05:34.565Z,55.79
2018-05-18T10:06:34.585Z,55.15
2018-05-18T10:07:34.599Z,55.53
2018-05-18T10:08:34.618Z,56.23
2018-05-18T10:09:34.635Z,55.08
2018-05-18T10:10:34.667Z,54.67
2018-05-18T10:11:34.667Z,56.68
2018-05-18T10:12:34.705Z,58.31
2018-05-18T10:13:34.710Z,56.10
2018-05-18T10:14:34.732Z,56.17
2018-05-18T10:15:34.744Z,56.08
2018-05-18T10:16:34.753Z,56.56
2018-05-18T10:17:34.769Z,55.88
2018-05-18T10:18:34.835Z,56.37
2018-05-18T10:19:34.822Z,55.67
2018-05-18T10:20:34.824Z,57.29
2018-05-18T10:21:34.835Z,57.90
2018-05-18T10:22:34.850Z,57.42
2018-05-18T10:23:34.868Z,57.23
2018-05-18T10:24:34.888Z,58.95
2018-05-18T10:25:34.904Z,57.29
2018-05-18T10:26:35.940Z,57.48
2018-05-18T10:27:34.936Z,58.73
2018-05-18T10:28:34.975Z,59.14
2018-05-18T10:29:36.587Z,58.09
2018-05-18T10:30:35.722Z,56.46
2018-05-18T10:31:35.647Z,56.30
2018-05-18T10:32:35.029Z,57.38
2018-05-18T10:33:35.307Z,56.32
2018-05-18T10:34:35.300Z,54.03
2018-05-18T10:35:35.558Z,54.70
2018-05-18T10:36:35.087Z,55.78
2018-05-18T10:37:35.172Z,54.44
2018-05-18T10:38:35.423Z,54.63
2018-05-18T10:39:35.827Z,53.86
2018-05-18T10:40:35.350Z,54.82
2018-05-18T10:41:35.171Z,54.60
2018-05-18T10:42:35.190Z,54.99
2018-05-18T10:43:35.219Z,55.65
2018-05-18T10:44:35.226Z,55.65
2018-05-18T10:45:35.240Z,55.94
2018-05-18T10:46:35.274Z,56.61
2018-05-18T10:47:35.274Z,56.99
2018-05-18T10:48:35.443Z,56.13
2018-05-18T10:49:35.339Z,57.38
2018-05-18T10:50:35.437Z,55.56
2018-05-18T10:51:35.343Z,55.75
2018-05-18T10:52:35.365Z,55.27
2018-05-18T10:53:35.380Z,55.18
2018-05-18T10:54:35.404Z,54.79
2018-05-18T10:55:35.426Z,54.57
2018-05-18T10:56:35.437Z,54.48
2018-05-18T10:57:35.449Z,55.82
2018-05-18T10:58:35.531Z,55.63
2018-05-18T10:59:35.489Z,56.77
2018-05-18T11:00:35.606Z,55.65
2018-05-18T11:01:35.519Z,55.73
2018-05-18T11:02:35.541Z,54.48
2018-05-18T11:03:35.552Z,55.69
2018-05-18T11:04:35.571Z,56.27
2018-05-18T11:05:35.590Z,57.80
2018-05-18T11:06:35.608Z,57.92
2018-05-18T11:07:35.633Z,57.28
2018-05-18T11:08:35.642Z,57.09
2018-05-18T11:09:35.671Z,54.63
2018-05-18T11:10:35.678Z,54.72
2018-05-18T11:11:35.696Z,54.72
2018-05-18T11:12:35.716Z,54.53
2018-05-18T11:13:35.726Z,54.44
2018-05-18T11:14:35.744Z,54.32
2018-05-18T11:15:35.767Z,54.60
2018-05-18T11:16:35.782Z,54.60
2018-05-18T11:17:35.811Z,55.27
2018-05-18T11:18:35.831Z,55.56
2018-05-18T11:19:35.840Z,55.56
2018-05-18T11:20:35.849Z,54.91
2018-05-18T11:21:35.920Z,53.19
2018-05-18T11:22:35.881Z,54.82
2018-05-18T11:23:35.903Z,52.71
2018-05-18T11:24:36.094Z,53.00
2018-05-18T11:25:35.934Z,51.95
2018-05-18T11:26:35.956Z,52.55
2018-05-18T11:27:35.978Z,51.18
2018-05-18T11:28:35.989Z,52.16
2018-05-18T11:29:36.018Z,51.97
2018-05-18T11:30:36.023Z,52.45
2018-05-18T11:31:36.055Z,52.71
2018-05-18T11:32:36.074Z,54.03
2018-05-18T11:33:36.075Z,54.72
2018-05-18T11:34:36.095Z,54.53
2018-05-18T11:35:36.141Z,53.58
2018-05-18T11:36:36.134Z,53.74
2018-05-18T11:37:36.146Z,54.50
2018-05-18T11:38:36.162Z,54.03
2018-05-18T11:39:36.180Z,53.55
2018-05-18T11:40:36.202Z,55.30
2018-05-18T11:41:36.875Z,55.49
2018-05-18T11:42:36.233Z,54.27
2018-05-18T11:43:36.250Z,52.91
2018-05-18T11:44:36.266Z,51.97
2018-05-18T11:45:36.288Z,51.78
2018-05-18T11:46:36.303Z,51.28
2018-05-18T11:47:36.321Z,52.91
2018-05-18T11:48:36.346Z,53.70
2018-05-18T11:49:36.355Z,51.23
2018-05-18T11:50:36.373Z,52.95
2018-05-18T11:51:36.710Z,51.04
2018-05-18T11:52:36.433Z,50.56
2018-05-18T11:53:36.424Z,53.05
2018-05-18T11:54:36.540Z,53.24
2018-05-18T11:55:36.477Z,52.07
2018-05-18T11:56:36.483Z,52.45
2018-05-18T11:57:36.502Z,53.12
2018-05-18T11:58:36.515Z,52.52
2018-05-18T11:59:36.533Z,51.95
2018-05-18T12:00:36.553Z,53.19
2018-05-18T12:01:36.898Z,53.38
2018-05-18T12:02:36.587Z,53.09
2018-05-18T12:03:36.611Z,53.00
2018-05-18T12:04:36.622Z,51.97
2018-05-18T12:05:36.649Z,53.12
2018-05-18T12:06:36.658Z,52.57
2018-05-18T12:07:36.674Z,50.92
2018-05-18T12:08:36.852Z,52.19
2018-05-18T12:09:36.734Z,52.19
2018-05-18T12:10:36.739Z,50.27
2018-05-18T12:11:36.748Z,49.88
2018-05-18T12:12:36.767Z,50.08
2018-05-18T12:13:36.782Z,49.50
2018-05-18T12:14:36.799Z,49.41
2018-05-18T12:15:36.843Z,51.23
2018-05-18T12:16:36.838Z,52.19
2018-05-18T12:17:36.867Z,51.61
2018-05-18T12:18:36.873Z,52.31
2018-05-18T12:19:36.887Z,51.25
2018-05-18T12:20:36.906Z,48.57
2018-05-18T12:21:36.981Z,50.68
2018-05-18T12:22:36.944Z,51.06
2018-05-18T12:23:36.961Z,50.58
2018-05-18T12:24:37.283Z,49.60
2018-05-18T12:25:37.105Z,50.39
2018-05-18T12:26:37.019Z,51.83
2018-05-18T12:27:37.064Z,51.28
2018-05-18T12:28:37.050Z,52.84
2018-05-18T12:29:37.071Z,51.50
2018-05-18T12:30:37.089Z,48.81
2018-05-18T12:31:37.188Z,48.66
2018-05-18T12:32:37.130Z,50.58
2018-05-18T12:33:37.147Z,50.20
2018-05-18T12:34:37.165Z,48.83
2018-05-18T12:35:37.183Z,49.91
2018-05-18T12:36:37.194Z,52.62
2018-05-18T12:37:37.231Z,49.77
2018-05-18T12:38:37.238Z,48.81
2018-05-18T12:39:37.265Z,48.35
2018-05-18T12:40:37.333Z,49.02
2018-05-18T12:41:37.317Z,47.10
2018-05-18T12:42:37.308Z,47.39
2018-05-18T12:43:37.336Z,45.85
2018-05-18T12:44:37.429Z,48.18
2018-05-18T12:45:37.393Z,46.91
2018-05-18T12:46:37.386Z,47.39
2018-05-18T12:47:37.467Z,47.68
2018-05-18T12:48:37.424Z,46.91
2018-05-18T12:49:37.443Z,49.99
2018-05-18T12:50:37.461Z,49.41
2018-05-18T12:51:37.493Z,47.10
2018-05-18T12:52:37.505Z,47.68
2018-05-18T12:53:37.535Z,46.72
2018-05-18T12:54:37.552Z,47.08
2018-05-18T12:55:37.571Z,47.08